Domov               UVHVVR             MKGP            O straneh              
ZDRAVSTVENO VARSTVO RASTLIN
  MREŽA AGROMET. POSTAJ
 ► PROGNOSTIČNA OBVESTILA
AGROMETEOROLOŠKI PODATKI -
ARSO
OBVLADOVANJE TVEGANJ ZARADI
NEUGODNIH VREMENSKIH RAZMER
  ► NARAVNE NESREČE
  ► SUŠA/MOČA
  ► NAMAKANJE
  ► ŽLED (gozdarstvo)
KARTOGRAFSKI PRIKAZI
SPLETNE POVEZAVE
PROJEKTI IN PUBLIKACIJE

AGROMETEOROLOŠKA MREŽA: VREMENSKE POSTAJE IN FENOLOŠKA OPAZOVANJA

Pregled podatkov za lokacijo Branik, meteorološka postaja 42394

Pregled senzorjev na lokaciji

ID Ime Zadnja
vrednost
Datum
zadnje
spremembe
Tip
senzorja
2188 Temperatura 2 m ( °C) 13,58 °C 18.10.2017 17:59 50YA
2189 Relativna vlaga 2 m (% RH) 95,27 % RH 18.10.2017 18:00 50YA
2190 Omočenost lista (U) 3 U 18.10.2017 17:59 A730WET
2191 Hitrost vetra (km/h) 0,14 km/h 18.10.2017 18:00 566.2S-176 (200km/h)
2192 Padavine 0.2 mm (mm) 0 mm 18.10.2017 18:00 Rain-O-Matic
2193 Smer vetra (°) 179,59 ° 18.10.2017 18:00 566.2S-130

Pregled podatkov zadnjih 24 ur

Zap.
št.
Datum in čas Branik
Hitrost
vetra
Omočenost
lista
Padavine
0.2
mm
Relativna
vlaga
2
m
Smer
vetra
Temperatura
2
m
0 18.10.2017 17:00 0,14 3 0 95,27 179,59 13,58
1 18.10.2017 16:30 0,37 0 0 87,65 179,61 14,67
2 18.10.2017 16:00 1,17 0 0 78,66 175,55 15,86
3 18.10.2017 15:30 1,38 0 0 70,89 174,38 18,3
4 18.10.2017 15:00 0,31 0 0 68,39 182,39 19,88
5 18.10.2017 14:30 0,78 0 0 60,71 249,68 20,36
6 18.10.2017 14:00 1,68 0 0 60,42 272 20,43
7 18.10.2017 13:30 3,01 0 0 60,36 264,64 20,06
8 18.10.2017 13:00 2,89 0 0 60,57 278,93 19,97
9 18.10.2017 12:30 3,28 0 0 60,19 268,02 19,72
10 18.10.2017 12:00 2,64 0 0 63,46 270,44 19,16
11 18.10.2017 11:30 6,32 0 0 68,72 269,68 17,9
12 18.10.2017 11:00 6,28 0 0 73,11 267,01 17,28
13 18.10.2017 10:30 3,46 0 0 76,42 275,55 16,52
14 18.10.2017 10:00 0,8 3 0 73,12 273,35 16,14
15 18.10.2017 09:30 0,19 10 0 76,92 78,47 15,04
16 18.10.2017 09:00 0,18 10 0 82,76 78,47 13,13
17 18.10.2017 08:30 0,18 10 0 95,62 78,48 10,89
18 18.10.2017 08:00 0,18 10 0 100 78,48 8,1
19 18.10.2017 07:30 0,18 10 0 100 78,7 6,39
20 18.10.2017 07:00 0,18 10 0 100 78,69 5,52
21 18.10.2017 06:30 0,18 10 0 100 78,76 6,08
22 18.10.2017 06:00 0,4 10 0 100 80,65 6,94
23 18.10.2017 05:30 0,49 10 0 100 62,74 6,72
24 18.10.2017 05:00 0,18 10 0 100 72,25 6,25
25 18.10.2017 04:30 0,18 10 0 100 72,24 6,73
26 18.10.2017 04:00 0,67 10 0 100 72,25 8,12
27 18.10.2017 03:30 0,8 10 0 100 75,92 7,93
28 18.10.2017 03:00 0,2 10 0 100 62,09 7,76
29 18.10.2017 02:30 0,18 10 0 100 104,31 8,19
30 18.10.2017 02:00 0,33 10 0 100 102,42 8,5
31 18.10.2017 01:30 0,18 10 0 100 100,51 7,89
32 18.10.2017 01:00 0,27 10 0 100 102,27 8,04
33 18.10.2017 00:30 0,18 10 0 100 123,86 7,97
34 18.10.2017 00:00 0,18 10 0 100 123,86 8,26
35 17.10.2017 23:30 0,18 10 0 100 123,86 8,63
36 17.10.2017 23:00 0,18 10 0 100 123,86 8,89
37 17.10.2017 22:30 0,18 10 0 100 123,85 9,39
38 17.10.2017 22:00 0,18 10 0 100 123,85 9,81
39 17.10.2017 21:30 0,21 10 0 100 123,83 9,86
40 17.10.2017 21:00 0,18 10 0 100 128,42 9,83
41 17.10.2017 20:30 0,18 10 0 100 128,41 10,23
42 17.10.2017 20:00 0,18 10 0 100 128,42 10,67
43 17.10.2017 19:30 0,18 10 0 100 128,43 11,1
44 17.10.2017 19:00 0,18 10 0 100 128,42 11,72
45 17.10.2017 18:30 0,17 9 0 100 128,41 12,19
© 2011 Ministrstvo za kmetijstvo, gozdarstvo in prehrano. Vse pravice pridržane.